Time;durP1;ratioP1;P1;durP2;ratioP2;P2;SDS_P1;SDS_P2;PMS_P1;PMS_P2;Temp;Humidity;BMP_temperature;BMP_pressure;BME280_temperature;BME280_humidity;BME280_pressure;Samples;Min_cycle;Max_cycle;Signal;HPM_P1;HPM_P2
2023/12/29 00:02:11;;;;;;;0.60;0.60;;;;;;;9.62;72.84;98581.59;5010152;28;20038;-91
2023/12/29 00:04:36;;;;;;;0.70;0.70;;;;;;;9.66;73.16;98577.25;5002778;28;20053;-90
2023/12/29 00:07:02;;;;;;;0.60;0.60;;;;;;;9.63;72.78;98578.09;5013074;28;20560;-91
2023/12/29 00:09:28;;;;;;;0.60;0.60;;;;;;;9.73;72.33;98580.16;5000027;28;20037;-90
2023/12/29 00:11:54;;;;;;;0.60;0.60;;;;;;;9.66;72.72;98575.50;5032977;28;20136;-90
2023/12/29 00:14:19;;;;;;;0.50;0.50;;;;;;;9.67;72.55;98571.06;5017372;28;20554;-90
2023/12/29 00:16:45;;;;;;;0.60;0.60;;;;;;;9.70;72.08;98571.16;5002461;28;20033;-90
2023/12/29 00:19:11;;;;;;;0.60;0.60;;;;;;;9.68;72.24;98563.16;5016877;28;20045;-91
2023/12/29 00:21:37;;;;;;;0.70;0.70;;;;;;;9.57;72.27;98564.56;5019206;28;20112;-89
2023/12/29 00:24:04;;;;;;;0.60;0.60;;;;;;;9.51;72.67;98567.94;5004098;28;20050;-90
2023/12/29 00:26:29;;;;;;;0.60;0.60;;;;;;;9.61;72.33;98573.56;5003087;28;20064;-87
2023/12/29 00:28:57;;;;;;;0.60;0.60;;;;;;;9.62;72.12;98564.69;5003868;28;20042;-91
2023/12/29 00:31:23;;;;;;;0.70;0.70;;;;;;;9.65;72.17;98559.47;5021734;28;20065;-90
2023/12/29 00:33:52;;;;;;;0.60;0.60;;;;;;;9.53;72.19;98562.66;5000629;28;20025;-89
2023/12/29 00:36:19;;;;;;;0.70;0.70;;;;;;;9.60;72.16;98563.75;5018561;28;20052;-90
2023/12/29 00:38:44;;;;;;;0.70;0.70;;;;;;;9.58;71.95;98560.13;5012730;28;20038;-88
2023/12/29 00:41:10;;;;;;;0.60;0.60;;;;;;;9.55;71.99;98560.97;5049870;28;20122;-90
2023/12/29 00:43:36;;;;;;;0.70;0.70;;;;;;;9.47;72.35;98555.38;5031244;28;20106;-89
2023/12/29 00:46:04;;;;;;;0.70;0.70;;;;;;;9.65;71.59;98548.81;5035064;28;20204;-89
2023/12/29 00:48:30;;;;;;;0.60;0.60;;;;;;;9.66;72.11;98542.63;5030235;28;20049;-90
2023/12/29 00:50:55;;;;;;;0.63;0.63;;;;;;;9.65;71.46;98547.06;5032936;28;20064;-91
2023/12/29 00:53:21;;;;;;;0.70;0.70;;;;;;;9.57;71.74;98537.94;5002143;28;20475;-90
2023/12/29 00:55:46;;;;;;;0.70;0.70;;;;;;;9.71;71.38;98543.66;5004117;28;20405;-90
2023/12/29 00:58:12;;;;;;;0.60;0.60;;;;;;;9.71;71.29;98551.66;5016031;28;20030;-90
2023/12/29 01:00:37;;;;;;;0.60;0.60;;;;;;;9.74;71.13;98554.44;5019406;28;20041;-89
2023/12/29 01:03:03;;;;;;;0.60;0.60;;;;;;;9.75;71.07;98556.22;4996508;28;20046;-90
2023/12/29 01:05:29;;;;;;;0.60;0.60;;;;;;;9.73;71.12;98560.63;5009239;28;20041;-89
2023/12/29 01:07:54;;;;;;;0.60;0.60;;;;;;;9.62;71.84;98568.25;5016109;28;20033;-89
2023/12/29 01:10:19;;;;;;;0.60;0.60;;;;;;;9.50;72.58;98579.47;5016506;28;20124;-90
2023/12/29 01:12:45;;;;;;;0.70;0.70;;;;;;;9.31;73.59;98569.09;5000402;28;20037;-90
2023/12/29 01:15:11;;;;;;;0.70;0.70;;;;;;;9.21;74.83;98578.56;4999848;28;20274;-88
2023/12/29 01:17:36;;;;;;;0.60;0.60;;;;;;;9.06;75.62;98582.50;5018050;28;20048;-88
2023/12/29 01:20:04;;;;;;;0.60;0.60;;;;;;;8.99;75.78;98576.94;5013738;28;20041;-92
2023/12/29 01:22:31;;;;;;;0.60;0.60;;;;;;;9.06;75.35;98578.06;5008293;28;20093;-90
2023/12/29 01:24:59;;;;;;;0.70;0.70;;;;;;;9.16;74.85;98577.50;5017891;28;20468;-89
2023/12/29 01:27:24;;;;;;;0.65;0.65;;;;;;;9.10;74.78;98577.31;5034271;28;20041;-89
2023/12/29 01:29:49;;;;;;;0.60;0.60;;;;;;;9.14;74.67;98567.66;5012876;28;20533;-90
2023/12/29 01:32:15;;;;;;;0.70;0.70;;;;;;;9.21;74.04;98564.34;5019229;28;20297;-91
2023/12/29 01:34:40;;;;;;;0.70;0.70;;;;;;;9.17;74.43;98559.78;5013713;28;20037;-90
2023/12/29 01:37:06;;;;;;;0.77;0.77;;;;;;;9.20;74.68;98565.22;4993964;28;20112;-91
2023/12/29 01:39:33;;;;;;;0.60;0.60;;;;;;;9.20;74.49;98570.53;4988199;28;20029;-90
2023/12/29 01:41:59;;;;;;;0.60;0.60;;;;;;;9.18;74.25;98564.22;5032654;28;20033;-89
2023/12/29 01:44:24;;;;;;;0.60;0.60;;;;;;;9.30;73.47;98567.28;5014846;28;20376;-90
2023/12/29 01:46:52;;;;;;;0.60;0.60;;;;;;;9.26;73.71;98568.06;5021270;28;20041;-90
2023/12/29 01:49:19;;;;;;;0.60;0.60;;;;;;;9.44;73.00;98557.09;5017485;28;20171;-92
2023/12/29 01:51:45;;;;;;;;;;;;;;;9.19;73.99;98558.03;5016411;28;20040;-90
2023/12/29 01:54:12;;;;;;;0.70;0.70;;;;;;;9.10;74.35;98553.38;5020447;28;20689;-89
2023/12/29 01:56:38;;;;;;;0.70;0.70;;;;;;;9.21;73.33;98559.03;5017296;28;20054;-89
2023/12/29 01:59:04;;;;;;;0.60;0.60;;;;;;;9.18;73.45;98553.59;5013823;28;20038;-89
2023/12/29 02:01:31;;;;;;;0.70;0.70;;;;;;;9.32;72.96;98556.69;5001808;28;20053;-90
2023/12/29 02:03:57;;;;;;;0.70;0.70;;;;;;;9.29;73.16;98553.91;5001736;28;20083;-90
2023/12/29 02:06:23;;;;;;;0.70;0.70;;;;;;;9.42;72.23;98556.09;5005907;28;20037;-89
2023/12/29 02:08:50;;;;;;;0.70;0.70;;;;;;;9.31;72.55;98544.25;5030792;28;20041;-90
2023/12/29 02:11:19;;;;;;;0.70;0.70;;;;;;;9.29;72.84;98546.81;5000322;28;20072;-90
2023/12/29 02:13:45;;;;;;;0.60;0.60;;;;;;;9.29;73.04;98544.16;5008439;28;20077;-90
2023/12/29 02:16:41;;;;;;;0.70;0.70;;;;;;;9.21;73.15;98543.03;4999330;28;20420;-89
2023/12/29 02:19:22;;;;;;;0.70;0.70;;;;;;;9.31;72.51;98531.81;5010206;28;20037;-87
2023/12/29 02:21:47;;;;;;;0.70;0.70;;;;;;;9.29;72.65;98527.28;5013007;28;20124;-87
2023/12/29 02:24:13;;;;;;;0.60;0.60;;;;;;;9.28;72.38;98523.72;5004135;28;20137;-88
2023/12/29 02:26:41;;;;;;;0.60;0.60;;;;;;;9.27;72.04;98524.59;5000702;28;20092;-88
2023/12/29 02:29:11;;;;;;;0.70;0.70;;;;;;;9.32;71.96;98527.41;5014787;28;20038;-88
2023/12/29 02:31:41;;;;;;;0.60;0.60;;;;;;;9.32;72.22;98522.06;4993520;28;20103;-88
2023/12/29 02:34:08;;;;;;;0.68;0.68;;;;;;;9.35;72.25;98523.06;4999018;28;20038;-88
2023/12/29 02:36:42;;;;;;;0.60;0.60;;;;;;;9.56;70.91;98513.91;5007387;28;20034;-89
2023/12/29 02:39:09;;;;;;;0.60;0.60;;;;;;;9.58;70.89;98513.13;5022789;28;20038;-89
2023/12/29 02:41:38;;;;;;;0.70;0.70;;;;;;;9.56;70.60;98509.50;5016032;28;20034;-88
2023/12/29 02:44:03;;;;;;;0.68;0.68;;;;;;;9.69;70.42;98505.44;5027812;28;20111;-88
2023/12/29 02:46:29;;;;;;;0.60;0.60;;;;;;;9.64;70.52;98509.72;5015948;28;20985;-89
2023/12/29 02:48:55;;;;;;;0.70;0.70;;;;;;;9.64;70.75;98507.06;5021308;28;20040;-90
2023/12/29 02:51:21;;;;;;;0.60;0.60;;;;;;;9.62;70.96;98516.75;5010158;28;20042;-88
2023/12/29 02:53:48;;;;;;;0.60;0.60;;;;;;;9.66;70.69;98510.66;4998100;28;20087;-90
2023/12/29 02:56:14;;;;;;;0.70;0.70;;;;;;;9.59;70.79;98506.03;4999214;28;20030;-89
2023/12/29 02:58:40;;;;;;;0.70;0.70;;;;;;;9.62;70.94;98504.34;5030608;28;20042;-89
2023/12/29 03:01:06;;;;;;;0.70;0.70;;;;;;;9.66;70.75;98502.69;5033677;28;20057;-88
2023/12/29 03:03:31;;;;;;;0.60;0.60;;;;;;;9.61;71.15;98502.53;5020601;28;20040;-88
2023/12/29 03:05:58;;;;;;;0.60;0.60;;;;;;;9.76;70.51;98507.41;5036987;28;20087;-89
2023/12/29 03:08:24;;;;;;;0.70;0.70;;;;;;;9.75;70.71;98509.16;5021538;28;20038;-89
2023/12/29 03:10:51;;;;;;;0.60;0.60;;;;;;;9.76;70.47;98499.41;5012799;28;20056;-88
2023/12/29 03:13:16;;;;;;;0.60;0.60;;;;;;;9.73;70.68;98499.34;5028516;28;20466;-89
2023/12/29 03:15:42;;;;;;;0.70;0.70;;;;;;;9.65;70.53;98490.22;5018814;28;20500;-90
2023/12/29 03:18:10;;;;;;;0.70;0.70;;;;;;;9.59;70.76;98496.28;5017179;28;20088;-89
2023/12/29 03:20:35;;;;;;;0.70;0.70;;;;;;;9.66;70.71;98486.69;5035344;28;20041;-89
2023/12/29 03:23:01;;;;;;;0.60;0.60;;;;;;;9.66;70.81;98492.91;5011759;28;20129;-89
2023/12/29 03:25:26;;;;;;;0.70;0.70;;;;;;;9.63;70.70;98495.50;5015284;28;20037;-89
2023/12/29 03:27:53;;;;;;;0.68;0.68;;;;;;;9.75;70.79;98494.94;5017334;28;20533;-90
2023/12/29 03:30:18;;;;;;;0.70;0.70;;;;;;;9.78;69.88;98492.38;4997043;28;20045;-89
2023/12/29 03:32:44;;;;;;;0.60;0.60;;;;;;;9.76;70.23;98486.09;5020044;28;20050;-90
2023/12/29 03:35:09;;;;;;;0.65;0.65;;;;;;;9.56;71.44;98488.19;5013997;28;20041;-90
2023/12/29 03:37:35;;;;;;;0.60;0.60;;;;;;;9.57;71.57;98494.41;5028713;28;20140;-89
2023/12/29 03:40:00;;;;;;;0.60;0.60;;;;;;;9.58;71.42;98491.81;5022060;28;20052;-90
2023/12/29 03:42:26;;;;;;;0.60;0.60;;;;;;;9.57;71.81;98497.06;5020277;28;20129;-89
2023/12/29 03:44:54;;;;;;;0.65;0.65;;;;;;;9.65;71.63;98487.56;5019277;28;20048;-89
2023/12/29 03:47:21;;;;;;;0.70;0.70;;;;;;;9.50;72.19;98491.59;5017358;28;20037;-89
2023/12/29 03:49:46;;;;;;;0.60;0.60;;;;;;;9.45;72.85;98479.91;5017215;28;20037;-90
2023/12/29 03:52:12;;;;;;;0.60;0.60;;;;;;;9.38;73.17;98480.56;5014858;28;20044;-89
2023/12/29 03:54:37;;;;;;;0.60;0.60;;;;;;;9.45;72.93;98481.66;5014640;28;20105;-89
2023/12/29 03:57:04;;;;;;;0.70;0.70;;;;;;;9.38;73.45;98482.31;5014834;28;20040;-89
2023/12/29 03:59:29;;;;;;;0.60;0.60;;;;;;;9.38;73.28;98482.31;5005275;28;20042;-88
2023/12/29 04:01:55;;;;;;;0.60;0.60;;;;;;;9.40;73.57;98492.16;5018053;28;20116;-89
2023/12/29 04:04:21;;;;;;;0.60;0.60;;;;;;;9.47;72.94;98495.91;5014389;28;20048;-89
2023/12/29 04:06:46;;;;;;;0.60;0.60;;;;;;;9.43;73.36;98478.94;5007455;28;20046;-87
2023/12/29 04:09:12;;;;;;;0.55;0.55;;;;;;;9.39;73.59;98479.72;4998489;28;20080;-88
2023/12/29 04:11:37;;;;;;;0.60;0.60;;;;;;;9.41;73.56;98472.66;4996003;28;20091;-89
2023/12/29 04:14:03;;;;;;;0.70;0.70;;;;;;;9.41;73.55;98478.00;4995916;28;20599;-88
2023/12/29 04:16:28;;;;;;;0.70;0.70;;;;;;;9.38;73.72;98477.88;5015276;28;20033;-90
2023/12/29 04:18:54;;;;;;;0.60;0.60;;;;;;;9.24;74.64;98479.22;5017734;28;20372;-88
2023/12/29 04:21:19;;;;;;;0.60;0.60;;;;;;;9.04;76.44;98475.97;5010892;28;20034;-88
2023/12/29 04:23:45;;;;;;;0.52;0.52;;;;;;;9.02;76.16;98476.78;5022127;28;20068;-89
2023/12/29 04:26:10;;;;;;;0.60;0.60;;;;;;;8.85;77.13;98471.81;4999408;28;20483;-88
2023/12/29 04:28:36;;;;;;;0.60;0.60;;;;;;;8.93;76.66;98478.31;5016675;28;20176;-89
2023/12/29 04:31:02;;;;;;;0.70;0.70;;;;;;;8.78;77.67;98477.81;5011129;28;20046;-88
2023/12/29 04:33:28;;;;;;;0.70;0.70;;;;;;;8.77;77.58;98476.03;5017959;28;20044;-90
2023/12/29 04:35:53;;;;;;;0.60;0.60;;;;;;;8.94;77.20;98489.84;5023112;28;20027;-91
2023/12/29 04:38:19;;;;;;;0.70;0.70;;;;;;;9.02;76.83;98484.78;5038736;28;20037;-89
2023/12/29 04:40:46;;;;;;;0.60;0.60;;;;;;;8.99;76.72;98483.81;5010249;28;20034;-89
2023/12/29 04:43:12;;;;;;;0.70;0.70;;;;;;;9.02;76.69;98476.78;5030070;28;20041;-88
2023/12/29 04:45:38;;;;;;;0.60;0.60;;;;;;;9.05;76.74;98487.50;5029075;28;20096;-88
2023/12/29 04:48:03;;;;;;;0.63;0.63;;;;;;;9.03;76.33;98483.91;5006852;28;20091;-88
2023/12/29 04:50:29;;;;;;;0.70;0.70;;;;;;;9.09;76.80;98484.09;5015047;28;20072;-89
2023/12/29 04:52:55;;;;;;;0.60;0.60;;;;;;;9.10;76.86;98489.50;5003226;28;20038;-87
2023/12/29 04:55:20;;;;;;;0.60;0.60;;;;;;;9.05;76.73;98492.84;5015012;28;20034;-89
2023/12/29 04:57:46;;;;;;;0.70;0.70;;;;;;;9.10;76.91;98483.22;5015429;28;20068;-89
2023/12/29 05:00:12;;;;;;;0.70;0.70;;;;;;;8.82;78.04;98489.47;5016360;28;20033;-89
2023/12/29 05:02:38;;;;;;;0.70;0.70;;;;;;;8.77;78.04;98497.31;4999310;28;20049;-89
2023/12/29 05:05:04;;;;;;;0.60;0.60;;;;;;;8.87;77.75;98488.75;5017580;28;20033;-89
2023/12/29 05:07:30;;;;;;;0.70;0.70;;;;;;;8.76;78.86;98490.16;4999630;28;20041;-89
2023/12/29 05:09:55;;;;;;;0.68;0.68;;;;;;;8.98;77.91;98494.41;4994817;28;20565;-88
2023/12/29 05:12:21;;;;;;;0.70;0.70;;;;;;;8.96;77.69;98489.06;5015888;28;20046;-88
2023/12/29 05:14:46;;;;;;;0.70;0.70;;;;;;;8.80;78.88;98481.41;5010934;28;20045;-89
2023/12/29 05:17:11;;;;;;;0.60;0.60;;;;;;;8.87;78.05;98482.53;5010136;28;20041;-88
2023/12/29 05:19:37;;;;;;;0.60;0.60;;;;;;;9.08;77.15;98500.94;5012521;28;20055;-88
2023/12/29 05:22:03;;;;;;;0.70;0.70;;;;;;;9.01;77.17;98491.88;5023294;28;20037;-88
2023/12/29 05:24:28;;;;;;;0.68;0.68;;;;;;;8.96;78.15;98494.38;5014239;28;20034;-89
2023/12/29 05:26:53;;;;;;;0.65;0.65;;;;;;;8.87;78.74;98488.75;5032381;28;20289;-88
2023/12/29 05:29:19;;;;;;;0.63;0.63;;;;;;;8.76;nan;98497.22;5027461;28;20035;-89
2023/12/29 05:31:44;;;;;;;0.60;0.60;;;;;;;8.63;80.48;98503.94;4999772;28;20076;-88
2023/12/29 05:34:10;;;;;;;0.70;0.70;;;;;;;8.39;81.99;98507.56;5017872;28;20159;-88
2023/12/29 05:36:36;;;;;;;0.60;0.60;;;;;;;8.24;83.46;98496.38;4999272;28;20532;-88
2023/12/29 05:39:03;;;;;;;0.70;0.70;;;;;;;8.08;84.47;98513.53;5018038;28;20042;-88
2023/12/29 05:41:29;;;;;;;0.70;0.70;;;;;;;8.06;85.45;98509.03;5019085;28;20291;-88
2023/12/29 05:43:54;;;;;;;0.70;0.70;;;;;;;8.01;85.47;98497.34;4997429;28;20125;-89
2023/12/29 05:46:19;;;;;;;0.60;0.60;;;;;;;7.91;86.29;98499.66;5012091;28;20484;-88
2023/12/29 05:48:46;;;;;;;0.70;0.70;;;;;;;7.81;86.89;98499.25;4997938;28;20042;-89
2023/12/29 05:51:13;;;;;;;0.70;0.70;;;;;;;7.75;87.38;98499.03;5001057;28;20661;-88
2023/12/29 05:53:42;;;;;;;0.77;0.77;;;;;;;7.77;87.73;98500.91;5016077;28;20049;-88
2023/12/29 05:56:11;;;;;;;0.70;0.70;;;;;;;7.83;87.63;98502.88;5014702;28;20029;-88
2023/12/29 05:58:37;;;;;;;0.60;0.60;;;;;;;7.74;87.66;98499.91;5003067;28;20476;-88
2023/12/29 06:01:02;;;;;;;0.60;0.60;;;;;;;7.61;88.61;98507.41;5004629;28;20041;-88
2023/12/29 06:03:28;;;;;;;0.65;0.65;;;;;;;7.60;88.90;98504.69;5016886;28;20034;-88
2023/12/29 06:05:54;;;;;;;0.60;0.60;;;;;;;7.70;88.87;98499.78;5003322;28;20096;-89
2023/12/29 06:08:20;;;;;;;0.68;0.68;;;;;;;7.64;88.83;98503.97;5017449;28;20036;-88
2023/12/29 06:10:45;;;;;;;0.70;0.70;;;;;;;7.69;89.21;98508.59;5016403;28;20042;-88
2023/12/29 06:13:11;;;;;;;0.60;0.60;;;;;;;7.65;89.23;98501.34;5002652;28;20038;-88
2023/12/29 06:15:36;;;;;;;0.70;0.70;;;;;;;7.73;88.72;98509.63;4999812;28;20044;-88
2023/12/29 06:18:02;;;;;;;0.70;0.70;;;;;;;7.93;88.19;98508.56;4997141;28;20080;-87
2023/12/29 06:20:28;;;;;;;0.70;0.70;;;;;;;7.73;89.00;98520.25;5027042;28;20165;-87
2023/12/29 06:22:53;;;;;;;0.60;0.60;;;;;;;7.72;88.94;98518.44;4997575;28;20037;-88
2023/12/29 06:25:19;;;;;;;0.70;0.70;;;;;;;7.58;89.72;98512.63;5013629;28;20100;-88
2023/12/29 06:27:44;;;;;;;0.70;0.70;;;;;;;7.59;90.19;98516.16;5023855;28;20045;-88
2023/12/29 06:30:10;;;;;;;0.70;0.70;;;;;;;7.60;89.84;98510.00;4998827;28;20041;-88
2023/12/29 06:32:36;;;;;;;0.70;0.70;;;;;;;7.56;90.79;98508.97;4993281;28;20046;-87
2023/12/29 06:35:03;;;;;;;0.65;0.65;;;;;;;7.49;90.97;98503.41;4995602;28;20038;-88
2023/12/29 06:37:28;;;;;;;0.60;0.60;;;;;;;7.54;91.07;98500.06;5012102;28;20045;-89
2023/12/29 06:39:54;;;;;;;0.60;0.60;;;;;;;7.40;91.06;98503.94;5016424;28;20049;-88
2023/12/29 06:42:19;;;;;;;0.70;0.70;;;;;;;7.40;91.15;98498.66;5014379;28;20025;-88
2023/12/29 06:44:46;;;;;;;0.60;0.60;;;;;;;7.25;91.70;98501.63;5017852;28;20079;-88
2023/12/29 06:47:12;;;;;;;0.60;0.60;;;;;;;7.32;91.67;98495.69;5016808;28;20034;-87
2023/12/29 06:49:39;;;;;;;0.65;0.65;;;;;;;7.15;91.69;98502.13;4997100;28;20057;-88
2023/12/29 06:52:07;;;;;;;0.70;0.70;;;;;;;7.05;92.16;98500.84;5030610;28;20065;-87
2023/12/29 06:54:36;;;;;;;0.70;0.70;;;;;;;7.05;92.13;98492.00;5011366;28;20143;-87
2023/12/29 06:57:01;;;;;;;0.70;0.70;;;;;;;7.03;92.22;98486.63;5011219;28;20464;-87
2023/12/29 06:59:28;;;;;;;0.70;0.70;;;;;;;6.86;92.45;98479.75;5000244;28;20037;-87
2023/12/29 07:01:53;;;;;;;0.70;0.70;;;;;;;7.04;91.80;98472.53;5010014;28;21001;-90
2023/12/29 07:04:19;;;;;;;0.73;0.73;;;;;;;6.77;92.00;98485.59;5011460;28;20047;-89
2023/12/29 07:06:44;;;;;;;0.70;0.70;;;;;;;7.03;91.85;98485.72;4998722;28;20048;-88
2023/12/29 07:09:10;;;;;;;0.80;0.80;;;;;;;7.07;91.59;98488.53;5015106;28;20583;-89
2023/12/29 07:11:36;;;;;;;0.80;0.80;;;;;;;6.90;91.89;98494.97;5014709;28;20042;-89
2023/12/29 07:14:02;;;;;;;0.75;0.75;;;;;;;7.06;91.25;98497.34;5013761;28;20040;-89
2023/12/29 07:16:28;;;;;;;0.73;0.73;;;;;;;6.96;92.36;98505.81;5019016;28;20143;-89
2023/12/29 07:18:53;;;;;;;0.73;0.73;;;;;;;7.22;91.55;98496.19;5030682;28;20053;-89
2023/12/29 07:21:19;;;;;;;0.70;0.70;;;;;;;7.17;91.47;98489.81;4996767;28;20429;-89
2023/12/29 07:23:44;;;;;;;0.70;0.70;;;;;;;7.20;92.15;98496.13;5014934;28;20412;-89
2023/12/29 07:26:09;;;;;;;0.70;0.70;;;;;;;7.23;92.12;98505.94;5015188;28;20041;-89
2023/12/29 07:28:35;;;;;;;0.70;0.70;;;;;;;7.18;92.32;98495.16;5014447;28;20065;-89
2023/12/29 07:31:01;;;;;;;0.73;0.73;;;;;;;7.27;92.25;98491.97;5016901;28;20049;-90
2023/12/29 07:33:27;;;;;;;0.70;0.70;;;;;;;7.55;90.85;98493.91;5020064;28;20037;-88
2023/12/29 07:35:53;;;;;;;0.70;0.70;;;;;;;7.63;90.29;98478.28;4993807;28;20029;-89
2023/12/29 07:38:18;;;;;;;0.70;0.70;;;;;;;7.62;89.28;98476.47;5003263;28;20084;-89
2023/12/29 07:40:44;;;;;;;0.70;0.70;;;;;;;7.67;89.19;98483.75;5016550;28;20042;-89
2023/12/29 07:43:11;;;;;;;0.70;0.70;;;;;;;7.58;89.81;98478.09;5012490;28;20098;-88
2023/12/29 07:45:37;;;;;;;0.70;0.70;;;;;;;7.79;88.71;98475.31;5018706;28;20101;-89
2023/12/29 07:48:03;;;;;;;0.70;0.70;;;;;;;7.77;88.89;98470.81;5004030;28;20096;-88
2023/12/29 07:50:29;;;;;;;0.70;0.70;;;;;;;7.79;88.70;98480.63;4999874;28;20200;-88
2023/12/29 07:52:55;;;;;;;0.70;0.70;;;;;;;7.88;88.07;98480.06;5016417;28;20535;-88
2023/12/29 07:55:20;;;;;;;0.70;0.70;;;;;;;7.81;88.90;98478.00;5016443;28;20526;-89
2023/12/29 07:57:46;;;;;;;0.80;0.80;;;;;;;7.81;88.86;98484.25;5000398;28;20045;-89
2023/12/29 08:00:14;;;;;;;0.80;0.80;;;;;;;7.88;88.59;98488.00;5008990;28;20038;-90
2023/12/29 08:02:39;;;;;;;;;;;;;;;8.04;88.08;98485.03;4998224;28;20438;-91
2023/12/29 08:05:10;;;;;;;0.80;0.80;;;;;;;8.10;87.20;98485.28;5018899;28;20372;-89
2023/12/29 08:07:37;;;;;;;0.60;0.60;;;;;;;8.25;87.13;98486.66;5020290;28;20030;-91
2023/12/29 08:10:04;;;;;;;0.70;0.70;;;;;;;8.28;86.30;98486.75;5008746;28;20038;-90
2023/12/29 08:12:30;;;;;;;0.70;0.70;;;;;;;8.34;86.43;98482.56;4993665;28;20052;-89
2023/12/29 08:14:56;;;;;;;0.60;0.60;;;;;;;8.41;86.31;98486.34;4999571;28;20042;-89
2023/12/29 08:17:22;;;;;;;0.70;0.70;;;;;;;8.67;84.57;98487.19;5036565;28;20038;-90
2023/12/29 08:19:47;;;;;;;0.60;0.60;;;;;;;8.76;83.89;98486.59;5002581;28;20045;-89
2023/12/29 08:22:13;;;;;;;0.70;0.70;;;;;;;8.84;83.66;98488.66;5004206;28;20037;-90
2023/12/29 08:24:42;;;;;;;0.70;0.70;;;;;;;8.97;82.94;98490.84;5034836;28;20050;-90
2023/12/29 08:27:07;;;;;;;0.70;0.70;;;;;;;8.95;83.03;98492.53;5001226;28;20431;-90
2023/12/29 08:29:35;;;;;;;0.70;0.70;;;;;;;9.03;82.13;98492.78;5017271;28;20069;-88
2023/12/29 08:32:02;;;;;;;0.60;0.60;;;;;;;9.15;81.84;98494.91;5015545;28;20038;-89
2023/12/29 08:34:29;;;;;;;0.60;0.60;;;;;;;9.23;81.60;98494.31;5017477;28;20076;-90
2023/12/29 08:36:55;;;;;;;0.68;0.68;;;;;;;9.24;81.30;98492.53;5003693;28;20095;-90
2023/12/29 08:39:20;;;;;;;0.70;0.70;;;;;;;9.17;81.77;98498.56;5017905;28;20034;-89
2023/12/29 08:41:46;;;;;;;0.60;0.60;;;;;;;9.24;81.13;98503.19;5016130;28;20042;-89
2023/12/29 08:44:12;;;;;;;0.70;0.70;;;;;;;9.39;80.52;98500.09;5010615;28;20052;-91
2023/12/29 08:46:37;;;;;;;0.60;0.60;;;;;;;9.47;80.18;98495.91;5016217;28;20034;-91
2023/12/29 08:49:07;;;;;;;0.70;0.70;;;;;;;9.51;79.47;98504.03;4997039;28;20058;-90
2023/12/29 08:51:32;;;;;;;0.70;0.70;;;;;;;9.52;79.45;98500.50;5017944;28;20391;-90
2023/12/29 08:53:58;;;;;;;0.70;0.70;;;;;;;9.62;79.17;98498.13;5012755;28;20587;-90
2023/12/29 08:56:23;;;;;;;0.70;0.70;;;;;;;9.48;79.70;98497.69;5013085;28;20077;-90
2023/12/29 08:58:49;;;;;;;0.70;0.70;;;;;;;9.56;79.70;98500.59;5020669;28;20036;-89
2023/12/29 09:01:14;;;;;;;0.70;0.70;;;;;;;9.71;78.91;98498.38;4995834;28;20057;-89
2023/12/29 09:03:39;;;;;;;0.70;0.70;;;;;;;9.79;78.40;98502.19;4997965;28;20045;-91
2023/12/29 09:06:05;;;;;;;0.60;0.60;;;;;;;9.61;79.08;98501.63;5014641;28;20036;-91
2023/12/29 09:08:31;;;;;;;0.63;0.63;;;;;;;9.55;80.00;98498.81;5030597;28;20034;-90
2023/12/29 09:10:56;;;;;;;0.60;0.60;;;;;;;9.69;78.99;98506.34;5016605;28;20108;-90
2023/12/29 09:13:25;;;;;;;0.70;0.70;;;;;;;9.66;79.05;98508.91;5020521;28;20034;-90
2023/12/29 09:15:50;;;;;;;0.60;0.60;;;;;;;9.73;78.13;98496.69;5001573;28;20116;-90
2023/12/29 09:18:18;;;;;;;0.70;0.70;;;;;;;9.79;78.04;98499.50;5029350;28;20034;-90
2023/12/29 09:20:43;;;;;;;0.70;0.70;;;;;;;9.85;78.46;98506.78;5004665;28;20049;-91
2023/12/29 09:23:09;;;;;;;0.70;0.70;;;;;;;9.83;78.07;98504.06;5020290;28;20038;-90
2023/12/29 09:25:34;;;;;;;0.70;0.70;;;;;;;9.75;77.93;98510.94;5020390;28;20038;-91
2023/12/29 09:28:00;;;;;;;0.63;0.63;;;;;;;9.91;77.43;98507.84;5017180;28;20045;-90
2023/12/29 09:30:25;;;;;;;0.60;0.60;;;;;;;9.82;77.77;98507.59;5003225;28;20069;-92
2023/12/29 09:32:50;;;;;;;0.70;0.70;;;;;;;9.92;77.32;98512.31;5010403;28;20034;-91
2023/12/29 09:35:17;;;;;;;0.68;0.68;;;;;;;10.08;76.46;98512.75;5013191;28;20034;-91
2023/12/29 09:37:42;;;;;;;0.70;0.70;;;;;;;10.08;76.82;98510.09;5012505;28;20416;-93
2023/12/29 09:40:10;;;;;;;0.60;0.60;;;;;;;9.96;77.10;98516.84;4995176;28;20152;-91
2023/12/29 09:42:39;;;;;;;0.70;0.70;;;;;;;10.05;77.14;98515.31;5014753;28;20042;-91
2023/12/29 09:45:09;;;;;;;0.70;0.70;;;;;;;10.00;77.24;98516.09;5017918;28;20170;-92
2023/12/29 09:47:39;;;;;;;0.65;0.65;;;;;;;9.99;77.59;98526.72;5012106;28;20042;-90
2023/12/29 09:50:06;;;;;;;0.60;0.60;;;;;;;10.01;77.80;98524.97;5011952;28;20125;-90
2023/12/29 09:52:33;;;;;;;0.70;0.70;;;;;;;10.20;76.62;98526.41;4996593;28;20435;-91
2023/12/29 09:55:01;;;;;;;0.60;0.60;;;;;;;10.34;75.66;98525.03;5012365;28;20049;-91
2023/12/29 09:57:27;;;;;;;0.60;0.60;;;;;;;10.47;75.20;98524.50;4997946;28;20066;-91
2023/12/29 09:59:54;;;;;;;0.60;0.60;;;;;;;10.65;75.12;98523.19;5011914;28;20084;-92
2023/12/29 10:02:22;;;;;;;0.60;0.60;;;;;;;10.73;74.37;98521.59;5028474;28;20045;-92
2023/12/29 10:04:48;;;;;;;0.60;0.60;;;;;;;10.69;74.62;98522.41;5026527;28;20038;-92
2023/12/29 10:07:38;;;;;;;0.65;0.65;;;;;;;10.53;75.32;98522.00;5012268;28;20041;-88
2023/12/29 10:10:04;;;;;;;0.70;0.70;;;;;;;10.55;75.47;98518.47;5019988;28;20743;-91
2023/12/29 10:12:32;;;;;;;0.60;0.60;;;;;;;10.48;75.73;98520.97;4998732;28;20037;-91
2023/12/29 10:15:06;;;;;;;0.60;0.60;;;;;;;10.49;75.29;98512.13;5004151;28;20040;-92
2023/12/29 10:17:54;;;;;;;0.60;0.60;;;;;;;10.38;75.52;98500.25;5029999;28;20043;-92
2023/12/29 10:20:37;;;;;;;0.60;0.60;;;;;;;10.48;74.63;98507.63;5032015;28;20103;-92
2023/12/29 10:23:13;;;;;;;0.50;0.50;;;;;;;10.34;75.76;98511.69;4999393;28;20093;-92
2023/12/29 10:25:39;;;;;;;0.60;0.60;;;;;;;10.28;76.32;98514.22;4994423;28;20038;-92
2023/12/29 10:28:06;;;;;;;0.60;0.60;;;;;;;10.05;78.11;98513.56;5034643;28;20034;-93
2023/12/29 10:30:32;;;;;;;0.63;0.63;;;;;;;9.89;79.58;98506.91;5020698;28;20042;-90
2023/12/29 10:33:00;;;;;;;0.60;0.60;;;;;;;9.78;80.74;98519.03;5030956;28;20626;-90
2023/12/29 10:35:26;;;;;;;0.70;0.70;;;;;;;9.82;81.07;98504.94;5023506;28;20052;-90
2023/12/29 10:37:51;;;;;;;0.60;0.60;;;;;;;10.01;81.30;98498.31;5031505;28;20042;-90
2023/12/29 10:40:21;;;;;;;0.70;0.70;;;;;;;10.50;79.62;98500.59;5014271;28;20041;-90
2023/12/29 10:42:54;;;;;;;0.70;0.70;;;;;;;10.67;78.69;98492.09;4996594;28;20053;-90
2023/12/29 10:45:20;;;;;;;0.70;0.70;;;;;;;10.88;77.47;98495.31;5018265;28;20046;-90
2023/12/29 10:47:45;;;;;;;0.70;0.70;;;;;;;11.16;78.17;98488.84;5014307;28;20503;-92
2023/12/29 10:50:11;;;;;;;0.60;0.60;;;;;;;11.51;75.14;98489.63;4999047;28;20034;-91
2023/12/29 10:52:37;;;;;;;0.60;0.60;;;;;;;12.01;73.56;98484.44;5006532;28;20037;-92
2023/12/29 10:55:13;;;;;;;0.60;0.60;;;;;;;11.67;73.37;98482.81;5017425;28;20045;-92
2023/12/29 10:57:40;;;;;;;0.60;0.60;;;;;;;11.38;75.80;98474.19;5001293;28;20301;-91
2023/12/29 11:00:12;;;;;;;0.70;0.70;;;;;;;11.88;74.49;98468.09;5004374;28;20038;-90
2023/12/29 11:02:40;;;;;;;0.60;0.60;;;;;;;12.56;71.04;98457.78;5034427;28;20049;-92
2023/12/29 11:05:07;;;;;;;0.60;0.60;;;;;;;13.22;67.60;98457.06;5018350;28;20400;-92
2023/12/29 11:07:37;;;;;;;0.60;0.60;;;;;;;13.56;65.34;98457.53;5001843;28;20038;-92
2023/12/29 11:10:05;;;;;;;0.50;0.50;;;;;;;13.60;65.42;98456.66;4999327;28;20098;-92
2023/12/29 11:12:35;;;;;;;0.50;0.50;;;;;;;13.72;64.36;98453.25;5021453;28;20081;-92
2023/12/29 11:15:05;;;;;;;0.50;0.50;;;;;;;13.94;63.86;98449.03;5008500;28;20048;-92
2023/12/29 11:17:33;;;;;;;0.50;0.50;;;;;;;14.29;62.08;98444.03;5009091;28;20044;-92
2023/12/29 11:20:04;;;;;;;0.40;0.40;;;;;;;14.16;61.71;98444.78;5015646;28;20064;-92
2023/12/29 11:22:31;;;;;;;0.50;0.50;;;;;;;13.72;63.37;98448.78;5020994;28;20088;-93
2023/12/29 11:25:00;;;;;;;0.50;0.50;;;;;;;13.62;62.58;98443.31;5020056;28;20042;-93
2023/12/29 11:27:28;;;;;;;0.50;0.50;;;;;;;13.68;62.69;98446.03;5023074;28;20049;-93
2023/12/29 11:29:55;;;;;;;0.50;0.50;;;;;;;13.39;63.42;98446.56;5025826;28;20096;-93
2023/12/29 11:32:31;;;;;;;0.50;0.50;;;;;;;13.56;62.98;98445.03;4996515;28;20042;-92
2023/12/29 11:35:10;;;;;;;0.50;0.50;;;;;;;13.85;61.62;98441.78;4998444;28;20042;-93
2023/12/29 11:38:13;;;;;;;0.60;0.60;;;;;;;14.82;58.63;98433.78;5033546;28;20076;-92
2023/12/29 11:40:44;;;;;;;0.50;0.50;;;;;;;15.28;55.50;98434.09;5032444;28;20671;-92